首页
METAR-TAF:

METAR-TAF

机场 :

Lincoln Airport

林肯, 內布拉斯加州, 美国

纬度: 40-49-52N, 经度: 096-45-52W, 海拔: 370米

当前天气观测

该预报发布于1小时和6分钟前的18:54 UTC
风速8节,风向北转西北,有时为15节阵风
温度 7°C
湿度 39%
气压 1028 hPa
能見度: 16.1公里
天空无云

METAR: KLNK 141854Z 33008G15KT 10SM CLR 07/M06 A3035 RMK AO2 SLP286 T00721056

时间: 14:00 (20:00 UTC)

预报

该预报发布于2小时和35分钟前的17:25 UTC
预报有效从14日的 18点(UTC)到 15日的 18点(UTC)
风速8节,风向西转西北
能見度: 10公里
散云层高于25000英尺
从 15日的 0000点(UTC)
风速2节,风向
能見度: 10公里
散云层高于25000英尺
从 15日的 1000点(UTC)
风速2节,风向多变
能見度: 10公里
天空无云

TAF: KLNK 141725Z 1418/1518 30008KT P6SM SCT250 FM150000 17002KT P6SM SCT250 FM151000 VRB02KT P6SM SKC

超过4000个机场的气象观测和天气预报(METAR&TAF报告)。

可查询的气象台以黄色和红色小点在地图上表示。

将鼠标移到小点上方,可查看气象台名称。

然后点击查看天气观测和预报。

如需切换地图:点击带黑十字的绿色按钮放大地图;点击带横线的绿色按钮缩小地图;或者点击绿色箭头查看邻近地区的地图。


METAR-TAF: